LZIB/BTS METAR and TAF weather

Enter ICAO airport designator
Station Type Date Time Source
LZIB METAR 2019/07/20 20:00 UTC NOAA

LZIB 202000Z 17002KT CAVOK 25/16 Q1016


Station Type Date Time Source
LZIB Decoded METAR 2019/07/20 20:00 UTC NOAA

Bratislava Ivanka, Slovakia (LZIB) 48-12N 017-12E 142M
Jul 20, 2019 - 04:00 PM EDT / 2019.07.20 2000 UTC
Wind: from the S (170 degrees) at 2 MPH (2 KT):0
Visibility: greater than 7 mile(s):0
Temperature: 77 F (25 C)
Dew Point: 60 F (16 C)
Relative Humidity: 57%
Pressure (altimeter): 30.00 in. Hg (1016 hPa)
ob: LZIB 202000Z 17002KT CAVOK 25/16 Q1016
cycle: 20

Station Type Date Time Source
LZIB TAF 2019/07/20 18:54 UTC NOAA

TAF LZIB 201700Z 2018/2118 17008KT CAVOK
BECMG 2023/2101 06005KT
BECMG 2108/2110 32012KT 9999 SCT042
TEMPO 2110/2118 31015G25KT SHRA FEW040CB SCT060 PROB40
TEMPO 2112/2117 30020G30KT 7000 TSRA SCT033CB BKN050

Example: see airport list